[source: ADDS]
METAR
TAF EDVE 161700Z 1618/1621 23020G35KT 9999 SCT030 PROB30 TEMPO 1619/1621 23030G50KT EDDV 162350Z 24018KT 9999 -RA SCT022 BKN034 08/05 Q1005

TAF EDDV 162300Z 1700/1724 24015G30KT 9999 BKN025 TEMPO 1700/1706 24020G35KT PROB30 TEMPO 1700/1701 4000 RA BKN014 BECMG 1710/1712 23020G35KT BECMG 1714/1716 23012KT PROB30 TEMPO 1716/1724 23015G25KT TEMPO 1721/1724 SHRA BKN020CB ETHS 162320Z 25019KT 9999 -RA SCT015 BKN040 08/05 Q1003 BLU

ETHC 162320Z 23018KT 9999 -RA FEW022 OVC060 08/06 Q1004 BLU

EDVK 162020Z 22020G32KT CAVOK 14/05 Q1001

TAF EDVK 162000Z 1621/1703 22015G30KT CAVOK TEMPO 1621/1624 22025G45KT TEMPO 1621/1701 4500 RA BKN010 BECMG 1700/1703 24013KT
TAF
TAF EDVE 161700Z 1618/1621 23020G35KT 9999 SCT030 PROB30 TEMPO 1619/1621 23030G50KT

TAF EDDV 162300Z 1700/1724 24015G30KT 9999 BKN025 TEMPO 1700/1706 24020G35KT PROB30 TEMPO 1700/1701 4000 RA BKN014 BECMG 1710/1712 23020G35KT BECMG 1714/1716 23012KT PROB30 TEMPO 1716/1724 23015G25KT TEMPO 1721/1724 SHRA BKN020CB

TAF EDVK 162000Z 1621/1703 22015G30KT CAVOK TEMPO 1621/1624 22025G45KT TEMPO 1621/1701 4500 RA BKN010 BECMG 1700/1703 24013KT

SR / SS: 06:30 / 16:33 UTC (EDVE 2020-02-17)
Ilya hat die Theorieprüfung bestanden! Herzlichen Glückwunsch und weiterhin viel Erfolg für die restliche Ausbildung! +++ Hallo Felix, herzlich Willkommen bei der FFG und viel Erfolg für deine Pilotenausbildung! +++ Jens verstärkt als neuer Fluglehrer ab sofort unser FFG-Fluglehrer-Team. Glückwunsch und viel Erfolg beim Ausbilden! +++ Wir beglückwünschen Sebastian zur bestandenen PPL-Theorie-Prüfung! Weiterhin viel Erfolg bei der Ausbildung! +++ Stefan hat die praktische Prüfung bestanden! Herzlichen Glückwunsch und Always Happy Landings! +++ Ein weiteres Mitglied hat die Prüfung zum Fluglehrer gemeistert. Glückwunsch Nico und viel Erfolg beim Ausbilden! +++ Florian Hansmann ist ab sofort als Fluglehrer für die FFG tätig! Danke für das Engagement und viel Spaß mit deinen zukünftigen Schülern! +++ Willkommen im Verein Michael und viel Erfolg für deine Ausbildung! +++ Herzlich Willkommen bei der FFG Jens!

wenig -> mittel -> viel

Professionelle Piloten arbeiten mit Checkliste
Ausdrucken und abarbeiten! Vorbereitete Links helfen bei der Beschaffung der notwendigen Informationen.

Weiterlesen ...

Hier gibt es die AIP mit allen erforderlichen Karten die im Abo der FFG liegen zum Download für unsere Mitglieder.

          aerodata150     Radio38